Time;durP1;ratioP1;P1;durP2;ratioP2;P2;SDS_P1;SDS_P2;PMS_P1;PMS_P2;Temp;Humidity;BMP_temperature;BMP_pressure;BME280_temperature;BME280_humidity;BME280_pressure;Samples;Min_cycle;Max_cycle;Signal;HPM_P1;HPM_P2
2021/05/31 00:01:18;;;;;;;4.30;3.08;;;410.40;1894.40;;;;;;5073737;28;20078;-54
2021/05/31 00:03:44;;;;;;;3.55;3.10;;;410.30;1868.80;;;;;;5073564;28;20025;-60
2021/05/31 00:06:11;;;;;;;4.00;3.42;;;410.30;1868.80;;;;;;5073315;28;20044;-60
2021/05/31 00:08:37;;;;;;;4.43;3.25;;;410.20;1894.40;;;;;;5073391;28;20794;-60
2021/05/31 00:11:03;;;;;;;6.70;3.40;;;;;;;;;;5073674;28;20032;-55
2021/05/31 00:13:29;;;;;;;3.83;3.42;;;;;;;;;;5073291;28;20086;-55
2021/05/31 00:15:56;;;;;;;7.50;3.40;;;;;;;;;;5073622;28;20048;-62
2021/05/31 00:18:23;;;;;;;3.58;3.15;;;;;;;;;;5073201;28;20037;-56
2021/05/31 00:20:49;;;;;;;3.70;3.13;;;;;;;;;;5073264;28;20116;-55
2021/05/31 00:23:17;;;;;;;4.57;3.22;;;410.00;1817.60;;;;;;5073335;28;20029;-58
2021/05/31 00:25:43;;;;;;;6.30;3.22;;;409.80;1843.20;;;;;;5072680;28;20493;-60
2021/05/31 00:28:09;;;;;;;4.43;3.33;;;409.80;1817.60;;;;;;5073373;28;20080;-58
2021/05/31 00:30:34;;;;;;;5.22;3.30;;;409.80;1843.20;;;;;;5073114;28;20031;-60
2021/05/31 00:33:00;;;;;;;4.65;3.60;;;409.70;1843.20;;;;;;5073026;28;20384;-54
2021/05/31 00:35:26;;;;;;;4.05;3.53;;;409.60;1817.60;;;;;;5072413;28;20078;-61
2021/05/31 00:37:55;;;;;;;4.47;3.55;;;409.60;1817.60;;;;;;5072854;28;20074;-59
2021/05/31 00:40:23;;;;;;;4.07;3.45;;;409.60;1843.20;;;;;;5072499;28;20507;-59
2021/05/31 00:42:49;;;;;;;5.22;3.30;;;384.70;1868.80;;;;;;5072813;28;20028;-57
2021/05/31 00:45:16;;;;;;;4.78;3.53;;;384.80;1843.20;;;;;;5072658;28;20052;-58
2021/05/31 00:47:42;;;;;;;4.07;3.58;;;384.80;1843.20;;;;;;5072334;28;20473;-61
2021/05/31 00:50:09;;;;;;;4.00;3.17;;;384.80;1817.60;;;;;;5072843;28;20496;-61
2021/05/31 00:52:34;;;;;;;5.32;3.58;;;384.80;1817.60;;;;;;5072464;28;20085;-55
2021/05/31 00:55:00;;;;;;;6.00;3.55;;;384.80;1792.00;;;;;;5072512;28;20040;-61
2021/05/31 00:57:28;;;;;;;7.22;3.60;;;384.60;1817.60;;;;;;5072409;28;20107;-56
2021/05/31 00:59:53;;;;;;;4.10;3.50;;;384.50;1817.60;;;;;;5073023;28;20017;-61
2021/05/31 01:02:19;;;;;;;4.38;3.47;;;384.60;1817.60;;;;;;5072651;28;20075;-58
2021/05/31 01:04:45;;;;;;;3.50;3.13;;;384.50;1817.60;;;;;;5072364;28;20024;-61
2021/05/31 01:07:18;;;;;;;4.10;3.58;;;384.50;1817.60;;;;;;5072276;28;20093;-57
2021/05/31 01:10:03;;;;;;;3.92;3.38;;;384.60;1817.60;;;;;;5072384;28;20496;-57
2021/05/31 01:12:32;;;;;;;4.22;3.40;;;384.50;1817.60;;;;;;5072498;28;20473;-54
2021/05/31 01:15:14;;;;;;;4.20;3.60;;;384.30;1817.60;;;;;;5072501;28;20063;-61
2021/05/31 01:17:55;;;;;;;4.60;3.65;;;384.40;1817.60;;;;;;5072455;28;20060;-59
2021/05/31 01:20:40;;;;;;;4.22;3.65;;;;;;;;;;5071967;28;20102;-60
2021/05/31 01:23:09;;;;;;;4.65;3.83;;;;;;;;;;5072514;28;20115;-60
2021/05/31 01:25:54;;;;;;;5.32;3.83;;;;;;;;;;5071756;28;20516;-61
2021/05/31 01:28:27;;;;;;;8.13;4.13;;;;;;;;;;5070886;28;20040;-56
2021/05/31 01:30:56;;;;;;;3.58;3.17;;;;;;;;;;5072705;28;20029;-56
2021/05/31 01:33:24;;;;;;;4.22;3.25;;;;;;;;;;5073050;28;20039;-56
2021/05/31 01:35:51;;;;;;;4.97;3.65;;;;;;;;;;5072406;28;20519;-56
2021/05/31 01:38:20;;;;;;;7.57;3.67;;;384.40;1792.00;;;;;;5072377;28;20168;-57
2021/05/31 01:40:47;;;;;;;7.53;3.80;;;384.50;1792.00;;;;;;5072329;28;20078;-54
2021/05/31 01:43:15;;;;;;;4.35;3.70;;;384.10;1817.60;;;;;;5071598;28;20021;-60
2021/05/31 01:45:42;;;;;;;4.00;3.60;;;384.10;1817.60;;;;;;5071409;28;20036;-59
2021/05/31 01:48:09;;;;;;;5.43;3.58;;;384.10;1817.60;;;;;;5071151;28;20035;-59
2021/05/31 01:50:36;;;;;;;3.90;3.47;;;384.10;1817.60;;;;;;5071751;28;20099;-61
2021/05/31 01:53:04;;;;;;;3.97;3.58;;;384.10;1843.20;;;;;;5072039;28;20115;-58
2021/05/31 01:55:31;;;;;;;4.93;3.38;;;384.00;1843.20;;;;;;5071883;28;20610;-60
2021/05/31 01:57:58;;;;;;;4.53;3.50;;;384.00;1843.20;;;;;;5072021;28;20399;-59
2021/05/31 02:00:24;;;;;;;4.35;3.67;;;384.10;1843.20;;;;;;5071960;28;20028;-59
2021/05/31 02:02:50;;;;;;;5.40;3.47;;;384.10;1843.20;;;;;;5072070;28;20021;-55
2021/05/31 02:05:16;;;;;;;5.95;3.88;;;384.10;1843.20;;;;;;5072253;28;20028;-58
2021/05/31 02:07:43;;;;;;;4.65;3.65;;;384.10;1843.20;;;;;;5071761;28;20052;-57
2021/05/31 02:10:11;;;;;;;8.10;3.85;;;384.10;1843.20;;;;;;5072085;28;20115;-56
2021/05/31 02:12:58;;;;;;;6.10;3.40;;;384.10;1843.20;;;;;;5072077;28;20650;-56
2021/05/31 02:15:45;;;;;;;4.15;3.50;;;384.10;1843.20;;;;;;5071213;28;20107;-55
2021/05/31 02:18:44;;;;;;;4.70;3.70;;;384.20;1868.80;;;;;;5071799;28;20032;-58
2021/05/31 02:21:14;;;;;;;3.83;3.35;;;384.10;1868.80;;;;;;5071452;28;20503;-54
2021/05/31 02:23:42;;;;;;;6.30;3.70;;;384.20;1868.80;;;;;;5072024;28;20029;-61
2021/05/31 02:26:15;;;;;;;3.85;3.38;;;384.10;1868.80;;;;;;5071459;28;20473;-60
2021/05/31 02:28:43;;;;;;;4.28;3.28;;;384.20;1868.80;;;;;;5071661;28;20024;-60
2021/05/31 02:31:09;;;;;;;7.95;3.60;;;384.20;1894.40;;;;;;5071242;28;20082;-60
2021/05/31 02:33:36;;;;;;;6.18;3.15;;;384.10;1894.40;;;;;;5071746;28;20032;-54
2021/05/31 02:36:03;;;;;;;4.30;3.22;;;384.10;1894.40;;;;;;5071508;28;20028;-57
2021/05/31 02:38:29;;;;;;;4.97;3.70;;;384.10;1894.40;;;;;;5070998;28;20024;-54
2021/05/31 02:40:55;;;;;;;5.57;3.65;;;384.20;1894.40;;;;;;5071106;28;20085;-59
2021/05/31 02:43:20;;;;;;;3.90;3.50;;;384.10;1894.40;;;;;;5071608;28;20434;-61
2021/05/31 02:45:47;;;;;;;4.32;3.10;;;384.10;1894.40;;;;;;5071789;28;20033;-54
2021/05/31 02:48:13;;;;;;;4.93;3.10;;;384.20;1894.40;;;;;;5070984;28;20020;-55
2021/05/31 02:50:39;;;;;;;3.13;2.80;;;384.20;1894.40;;;;;;5071615;28;20028;-61
2021/05/31 02:53:05;;;;;;;4.03;2.72;;;384.20;1920.00;;;;;;5071132;28;20493;-56
2021/05/31 02:55:32;;;;;;;3.40;2.65;;;384.20;1894.40;;;;;;5071652;28;20048;-55
2021/05/31 02:57:59;;;;;;;4.72;2.67;;;384.20;1920.00;;;;;;5071269;28;20028;-57
2021/05/31 03:00:27;;;;;;;3.30;2.22;;;384.20;1894.40;;;;;;5071313;28;20052;-54
2021/05/31 03:02:54;;;;;;;4.55;2.38;;;384.20;1894.40;;;;;;5074892;28;20028;-54
2021/05/31 03:05:22;;;;;;;3.20;2.35;;;384.10;1920.00;;;;;;5075133;28;20039;-59
2021/05/31 03:07:48;;;;;;;4.38;2.30;;;384.20;1920.00;;;;;;5075155;28;20520;-54
2021/05/31 03:10:16;;;;;;;2.60;2.10;;;384.20;1920.00;;;;;;5075366;28;20021;-54
2021/05/31 03:12:42;;;;;;;4.07;1.95;;;384.20;1920.00;;;;;;5075812;28;20024;-59
2021/05/31 03:15:12;;;;;;;3.05;2.33;;;384.20;1920.00;;;;;;5075029;28;20028;-56
2021/05/31 03:17:38;;;;;;;3.00;2.00;;;384.20;1894.40;;;;;;5075555;28;20550;-60
2021/05/31 03:20:10;;;;;;;2.53;2.10;;;384.20;1920.00;;;;;;5074994;28;20062;-61
2021/05/31 03:22:36;;;;;;;3.05;1.80;;;384.20;1920.00;;;;;;5075322;28;20091;-54
2021/05/31 03:25:04;;;;;;;6.07;1.90;;;384.10;1920.00;;;;;;5074954;28;20025;-54
2021/05/31 03:27:29;;;;;;;4.60;1.90;;;384.20;1920.00;;;;;;5075280;28;20024;-60
2021/05/31 03:29:55;;;;;;;2.05;1.50;;;384.10;1920.00;;;;;;5074998;28;20086;-55
2021/05/31 03:32:21;;;;;;;3.40;1.55;;;384.00;1945.60;;;;;;5074876;28;20097;-61
2021/05/31 03:34:47;;;;;;;5.10;2.00;;;384.00;1920.00;;;;;;5074902;28;20029;-59
2021/05/31 03:37:13;;;;;;;1.88;1.55;;;384.00;1945.60;;;;;;5073527;28;20058;-60
2021/05/31 03:39:38;;;;;;;3.00;1.65;;;384.10;1945.60;;;;;;5074575;28;20103;-60
2021/05/31 03:42:07;;;;;;;1.90;1.63;;;384.00;1945.60;;;;;;5074481;28;20025;-54
2021/05/31 03:44:33;;;;;;;4.95;1.67;;;384.10;1920.00;;;;;;5074858;28;20103;-57
2021/05/31 03:46:59;;;;;;;2.22;1.70;;;384.20;1920.00;;;;;;5074175;28;20110;-59
2021/05/31 03:49:25;;;;;;;2.17;1.80;;;384.10;1945.60;;;;;;5073923;28;20098;-58
2021/05/31 03:51:51;;;;;;;4.25;1.70;;;384.10;1945.60;;;;;;5074290;28;20103;-54
2021/05/31 03:54:17;;;;;;;1.95;1.42;;;384.10;1945.60;;;;;;5074470;28;20521;-54
2021/05/31 03:56:43;;;;;;;2.80;1.80;;;384.10;1945.60;;;;;;5074430;28;20040;-54
2021/05/31 03:59:09;;;;;;;2.60;1.52;;;384.20;1945.60;;;;;;5074132;28;20507;-57
2021/05/31 04:01:35;;;;;;;4.13;2.05;;;384.20;1945.60;;;;;;5075090;28;20099;-55
2021/05/31 04:04:01;;;;;;;5.68;1.45;;;384.20;1945.60;;;;;;5074226;28;20535;-55
2021/05/31 04:07:21;;;;;;;2.88;1.35;;;384.30;1945.60;;;;;;5074297;28;20048;-62
2021/05/31 04:12:17;;;;;;;1.80;1.40;;;384.30;1920.00;;;;;;5051780;28;20128;-61
2021/05/31 04:14:43;;;;;;;3.03;1.60;;;384.40;1920.00;;;;;;5068605;28;20116;-57
2021/05/31 04:17:08;;;;;;;2.30;1.50;;;384.40;1920.00;;;;;;5074315;28;20460;-60
2021/05/31 04:19:34;;;;;;;3.15;1.50;;;384.40;1920.00;;;;;;5074210;28;20033;-56
2021/05/31 04:22:00;;;;;;;3.17;1.48;;;384.50;1920.00;;;;;;5073962;28;20021;-60
2021/05/31 04:24:26;;;;;;;1.55;1.33;;;384.50;1920.00;;;;;;5074420;28;20059;-62
2021/05/31 04:26:52;;;;;;;4.80;1.50;;;384.60;1894.40;;;;;;5073761;28;20485;-59
2021/05/31 04:29:18;;;;;;;3.70;1.33;;;384.60;1894.40;;;;;;5074098;28;20031;-54
2021/05/31 04:31:44;;;;;;;3.65;1.60;;;384.70;1894.40;;;;;;5073979;28;20033;-57
2021/05/31 04:34:12;;;;;;;3.05;1.60;;;384.60;1894.40;;;;;;5074101;28;20032;-58
2021/05/31 04:36:39;;;;;;;2.15;1.30;;;384.70;1920.00;;;;;;5074008;28;20036;-60
2021/05/31 04:39:07;;;;;;;2.58;1.52;;;384.60;1920.00;;;;;;5074126;28;20100;-57
2021/05/31 04:41:33;;;;;;;4.90;2.13;;;384.60;1920.00;;;;;;5073719;28;20481;-54
2021/05/31 04:43:59;;;;;;;2.85;1.33;;;384.60;1920.00;;;;;;5073602;28;20535;-60
2021/05/31 04:46:25;;;;;;;3.90;1.98;;;384.50;1920.00;;;;;;5073804;28;20564;-60
2021/05/31 04:48:53;;;;;;;8.90;4.35;;;384.60;1920.00;;;;;;5073693;28;20100;-60
2021/05/31 04:51:19;;;;;;;14.02;5.90;;;384.40;1945.60;;;;;;5073797;28;20060;-54
2021/05/31 04:53:45;;;;;;;7.05;3.35;;;384.40;1945.60;;;;;;5073253;28;20445;-54
2021/05/31 04:56:13;;;;;;;6.35;3.72;;;384.30;1945.60;;;;;;5073488;28;20099;-57
2021/05/31 04:58:39;;;;;;;11.98;4.50;;;384.40;1945.60;;;;;;5073526;28;20033;-60
2021/05/31 05:01:05;;;;;;;8.75;4.25;;;384.40;1945.60;;;;;;5073200;28;20033;-61
2021/05/31 05:03:31;;;;;;;4.25;2.80;;;384.40;1971.20;;;;;;5073430;28;20020;-54
2021/05/31 05:05:56;;;;;;;4.93;2.40;;;384.50;1971.20;;;;;;5073118;28;20064;-57
2021/05/31 05:08:22;;;;;;;5.68;1.45;;;384.40;1971.20;;;;;;5071781;28;20025;-59
2021/05/31 05:10:48;;;;;;;3.85;1.60;;;384.40;1971.20;;;;;;5072996;28;20032;-56
2021/05/31 05:13:14;;;;;;;3.28;1.38;;;384.40;1971.20;;;;;;5073325;28;20369;-54
2021/05/31 05:15:40;;;;;;;2.13;1.60;;;384.50;1971.20;;;;;;5073298;28;20052;-59
2021/05/31 05:18:06;;;;;;;1.55;1.40;;;384.60;1971.20;;;;;;5073407;28;20110;-61
2021/05/31 05:20:33;;;;;;;4.20;1.80;;;384.40;1945.60;;;;;;5072641;28;20036;-54
2021/05/31 05:23:00;;;;;;;6.30;1.45;;;384.50;1945.60;;;;;;5072932;28;20519;-61
2021/05/31 05:25:26;;;;;;;2.83;1.30;;;384.50;1971.20;;;;;;5071662;28;20540;-60
2021/05/31 05:27:53;;;;;;;2.10;1.42;;;384.30;1971.20;;;;;;5072708;28;20107;-54
2021/05/31 05:30:25;;;;;;;6.20;1.80;;;384.40;1971.20;;;;;;5072555;28;20262;-60
2021/05/31 05:32:52;;;;;;;3.55;1.40;;;384.40;1945.60;;;;;;5072556;28;20028;-55
2021/05/31 05:35:30;;;;;;;2.22;1.30;;;384.40;1971.20;;;;;;5072934;28;20495;-60
2021/05/31 05:48:39;;;;;;;;;;;384.30;2048.00;;;;;;5072810;28;20329;-54
2021/05/31 05:51:06;;;;;;;12.70;10.05;;;384.30;2048.00;;;;;;5072272;28;20008;-56
2021/05/31 05:53:37;;;;;;;12.43;10.98;;;384.20;2073.60;;;;;;5069695;28;20024;-57
2021/05/31 05:56:06;;;;;;;7.65;6.47;;;384.30;2073.60;;;;;;5072020;28;20041;-55
2021/05/31 05:58:32;;;;;;;4.75;4.00;;;384.10;2099.20;;;;;;5071623;28;20025;-58
2021/05/31 06:00:59;;;;;;;3.38;2.03;;;384.30;2073.60;;;;;;5071151;28;20033;-59
2021/05/31 06:03:25;;;;;;;2.20;1.50;;;384.30;2073.60;;;;;;5071808;28;20028;-57
2021/05/31 06:05:53;;;;;;;3.00;2.10;;;384.30;2073.60;;;;;;5071615;28;20037;-55
2021/05/31 06:08:19;;;;;;;2.00;1.48;;;384.40;2073.60;;;;;;5072200;28;20534;-59
2021/05/31 06:10:45;;;;;;;1.67;1.42;;;384.30;2073.60;;;;;;5071659;28;20016;-60
2021/05/31 06:13:11;;;;;;;2.70;1.40;;;384.30;2073.60;;;;;;5071778;28;20027;-57
2021/05/31 06:15:37;;;;;;;1.30;1.20;;;384.20;2073.60;;;;;;5071497;28;20016;-61
2021/05/31 06:18:04;;;;;;;2.30;1.42;;;384.20;2073.60;;;;;;5071714;28;20020;-61
2021/05/31 06:20:30;;;;;;;2.92;1.40;;;384.30;2073.60;;;;;;5071458;28;20020;-54
2021/05/31 06:22:56;;;;;;;3.25;1.45;;;384.20;2099.20;;;;;;5071188;28;20020;-61
2021/05/31 06:25:22;;;;;;;3.33;1.30;;;384.20;2099.20;;;;;;5071487;28;20380;-60
2021/05/31 06:27:48;;;;;;;2.15;1.67;;;384.20;2099.20;;;;;;5071179;28;20028;-54
2021/05/31 06:30:14;;;;;;;3.47;2.17;;;384.20;2073.60;;;;;;5071726;28;20107;-61
2021/05/31 06:32:40;;;;;;;4.07;2.40;;;384.20;2099.20;;;;;;5071318;28;20039;-60
2021/05/31 06:35:07;;;;;;;8.20;4.78;;;384.20;2099.20;;;;;;5072011;28;20039;-54
2021/05/31 06:37:38;;;;;;;5.65;3.15;;;384.10;2099.20;;;;;;5070988;28;20063;-61
2021/05/31 06:40:14;;;;;;;3.28;1.50;;;384.10;2124.80;;;;;;5071402;28;20028;-56
2021/05/31 06:42:42;;;;;;;4.57;1.77;;;384.10;2124.80;;;;;;5071389;28;20099;-59
2021/05/31 06:45:11;;;;;;;1.88;1.55;;;384.00;2124.80;;;;;;5071341;28;20020;-59
2021/05/31 06:47:38;;;;;;;3.53;1.27;;;384.10;2124.80;;;;;;5071765;28;20034;-58
2021/05/31 06:50:05;;;;;;;2.42;1.25;;;384.10;2099.20;;;;;;5071443;28;20504;-60
2021/05/31 06:52:32;;;;;;;1.52;1.23;;;384.00;2124.80;;;;;;5071490;28;20067;-55
2021/05/31 06:54:57;;;;;;;2.88;1.83;;;384.00;2124.80;;;;;;5071325;28;20417;-57
2021/05/31 06:57:25;;;;;;;5.10;2.30;;;384.00;2150.40;;;;;;5071549;28;20044;-57
2021/05/31 06:59:50;;;;;;;5.65;2.15;;;384.10;2124.80;;;;;;5071192;28;20025;-55
2021/05/31 07:02:16;;;;;;;3.20;1.58;;;384.10;2124.80;;;;;;5070764;28;20017;-55
2021/05/31 07:04:42;;;;;;;4.88;1.70;;;384.10;2124.80;;;;;;5070488;28;20511;-55
2021/05/31 07:07:09;;;;;;;3.30;1.48;;;384.10;2124.80;;;;;;5071160;28;20044;-60
2021/05/31 07:09:34;;;;;;;1.55;1.08;;;384.00;2124.80;;;;;;5071518;28;20063;-57
2021/05/31 07:12:01;;;;;;;1.45;1.00;;;384.00;2124.80;;;;;;5070758;28;20060;-56
2021/05/31 07:14:34;;;;;;;2.25;1.55;;;384.00;2124.80;;;;;;5068441;28;20107;-57
2021/05/31 07:17:01;;;;;;;1.35;1.20;;;384.10;2124.80;;;;;;5071460;28;20059;-55
2021/05/31 07:19:28;;;;;;;5.65;4.20;;;384.10;2124.80;;;;;;5071390;28;20078;-58
2021/05/31 07:21:54;;;;;;;4.18;1.77;;;384.10;2124.80;;;;;;5070113;28;20045;-60
2021/05/31 07:24:20;;;;;;;1.77;1.50;;;384.20;2099.20;;;;;;5071419;28;20036;-58
2021/05/31 07:26:46;;;;;;;1.60;1.30;;;384.20;2099.20;;;;;;5071136;28;20036;-59
2021/05/31 07:29:12;;;;;;;2.22;1.45;;;384.20;2099.20;;;;;;5070945;28;20071;-59
2021/05/31 07:31:38;;;;;;;2.38;1.25;;;384.20;2099.20;;;;;;5070917;28;20031;-60
2021/05/31 07:34:04;;;;;;;2.50;1.50;;;384.30;2099.20;;;;;;5070524;28;20095;-60
2021/05/31 07:36:30;;;;;;;2.53;1.77;;;384.30;2099.20;;;;;;5071357;28;20042;-58
2021/05/31 07:38:57;;;;;;;5.00;1.58;;;384.30;2099.20;;;;;;5071215;28;20028;-60
2021/05/31 07:41:23;;;;;;;1.70;1.52;;;384.20;2124.80;;;;;;5071116;28;20021;-59
2021/05/31 07:43:49;;;;;;;3.25;1.75;;;384.30;2124.80;;;;;;5070983;28;20032;-57
2021/05/31 07:46:15;;;;;;;2.50;1.83;;;384.10;2150.40;;;;;;5071400;28;20485;-56
2021/05/31 07:48:42;;;;;;;2.88;1.52;;;384.10;2150.40;;;;;;5072123;28;20020;-55
2021/05/31 07:51:17;;;;;;;2.53;2.10;;;384.00;2201.60;;;;;;5074840;28;20034;-56
2021/05/31 07:53:45;;;;;;;3.53;2.08;;;359.20;2227.20;;;;;;5074765;28;20048;-57
2021/05/31 07:56:12;;;;;;;3.05;2.22;;;359.20;2227.20;;;;;;5074233;28;20049;-55
2021/05/31 07:58:40;;;;;;;4.13;2.70;;;359.30;2201.60;;;;;;5075155;28;20113;-56
2021/05/31 08:01:06;;;;;;;6.22;3.17;;;359.30;2201.60;;;;;;5074427;28;20543;-54
2021/05/31 08:03:32;;;;;;;4.88;2.25;;;384.00;2176.00;;;;;;5074588;28;20051;-60
2021/05/31 08:05:59;;;;;;;6.68;2.97;;;384.00;2201.60;;;;;;5074448;28;20493;-60
2021/05/31 08:08:25;;;;;;;4.07;2.25;;;384.00;2227.20;;;;;;5074578;28;20432;-60
2021/05/31 08:10:51;;;;;;;4.90;1.92;;;384.10;2201.60;;;;;;5074346;28;20039;-59
2021/05/31 08:13:17;;;;;;;4.45;1.80;;;384.00;2252.80;;;;;;5073961;28;20508;-60
2021/05/31 08:15:43;;;;;;;3.40;1.98;;;359.30;2227.20;;;;;;5073908;28;20397;-55
2021/05/31 08:18:10;;;;;;;4.00;2.35;;;359.30;2252.80;;;;;;5073763;28;20013;-57
2021/05/31 08:20:36;;;;;;;1.90;1.40;;;359.30;2227.20;;;;;;5073792;28;20021;-54
2021/05/31 08:23:02;;;;;;;2.60;1.70;;;359.10;2278.40;;;;;;5073391;28;20078;-56
2021/05/31 08:25:28;;;;;;;6.95;3.50;;;359.00;2278.40;;;;;;5073913;28;20032;-59
2021/05/31 08:27:54;;;;;;;3.65;2.17;;;359.10;2278.40;;;;;;5073578;28;20025;-59
2021/05/31 08:30:20;;;;;;;2.47;1.67;;;359.20;2278.40;;;;;;5074125;28;20025;-57
2021/05/31 08:32:47;;;;;;;2.50;1.70;;;359.10;2278.40;;;;;;5071144;28;20029;-54
2021/05/31 08:35:12;;;;;;;2.88;1.83;;;359.20;2252.80;;;;;;5072997;28;20423;-55
2021/05/31 08:37:38;;;;;;;3.17;1.80;;;359.20;2252.80;;;;;;5073882;28;20020;-59
2021/05/31 08:40:06;;;;;;;5.68;2.78;;;384.00;2227.20;;;;;;5073592;28;20028;-55
2021/05/31 08:42:36;;;;;;;6.55;4.38;;;384.00;2278.40;;;;;;5073847;28;20558;-59
2021/05/31 08:45:04;;;;;;;6.40;2.33;;;359.20;2278.40;;;;;;5073572;28;20021;-58
2021/05/31 08:47:30;;;;;;;1.98;1.58;;;359.30;2252.80;;;;;;5073921;28;20047;-54
2021/05/31 08:49:57;;;;;;;3.35;1.90;;;359.30;2252.80;;;;;;5073104;28;20013;-54
2021/05/31 08:52:22;;;;;;;4.60;1.50;;;359.30;2252.80;;;;;;5073609;28;20028;-56
2021/05/31 08:54:48;;;;;;;2.60;1.70;;;359.10;2304.00;;;;;;5073148;28;20033;-57
2021/05/31 08:57:14;;;;;;;5.80;2.10;;;359.10;2304.00;;;;;;5073248;28;20044;-55
2021/05/31 08:59:40;;;;;;;2.47;1.80;;;359.20;2329.60;;;;;;5073133;28;20082;-58
2021/05/31 09:02:07;;;;;;;5.80;1.80;;;359.20;2304.00;;;;;;5073343;28;20024;-56
2021/05/31 09:04:32;;;;;;;2.53;1.85;;;384.00;2304.00;;;;;;5072613;28;20107;-56
2021/05/31 09:07:01;;;;;;;1.80;1.48;;;359.30;2278.40;;;;;;5071982;28;20817;-54
2021/05/31 09:09:40;;;;;;;2.10;1.42;;;359.30;2304.00;;;;;;5071445;28;20099;-56
2021/05/31 09:12:09;;;;;;;2.30;1.70;;;359.20;2278.40;;;;;;5070698;28;20039;-54
2021/05/31 09:14:35;;;;;;;2.95;2.08;;;359.10;2329.60;;;;;;5071048;28;20032;-54
2021/05/31 09:17:01;;;;;;;3.90;3.47;;;359.20;2329.60;;;;;;5071193;28;20040;-54
2021/05/31 09:19:26;;;;;;;4.55;2.70;;;359.10;2329.60;;;;;;5071438;28;20412;-56
2021/05/31 09:21:52;;;;;;;3.92;2.15;;;359.10;2329.60;;;;;;5071462;28;20023;-54
2021/05/31 09:24:24;;;;;;;2.28;1.90;;;359.30;2304.00;;;;;;5072490;28;20055;-56
2021/05/31 09:26:56;;;;;;;2.65;1.75;;;359.20;2304.00;;;;;;5072478;28;20039;-58
2021/05/31 09:29:22;;;;;;;2.58;1.52;;;359.20;2278.40;;;;;;5072341;28;20012;-54
2021/05/31 09:32:17;;;;;;;3.13;1.55;;;359.30;2252.80;;;;;;5072512;28;20078;-54
2021/05/31 09:34:43;;;;;;;2.45;1.50;;;384.00;2252.80;;;;;;5049212;28;20051;-54
2021/05/31 09:37:09;;;;;;;4.57;1.85;;;384.00;2227.20;;;;;;5049815;28;20482;-53
2021/05/31 09:39:43;;;;;;;6.63;2.00;;;384.10;2227.20;;;;;;5049482;28;20048;-54
2021/05/31 09:42:14;;;;;;;;;;;384.10;2227.20;;;;;;5050340;28;20026;-53
2021/05/31 09:44:41;;;;;;;7.65;3.55;;;384.10;2227.20;;;;;;5047545;28;19911;-57
2021/05/31 09:47:07;;;;;;;4.47;2.10;;;384.10;2227.20;;;;;;5049759;28;20459;-58
2021/05/31 09:49:35;;;;;;;4.93;4.43;;;359.30;2252.80;;;;;;5048030;28;20029;-55
2021/05/31 09:52:04;;;;;;;4.05;2.90;;;384.00;2252.80;;;;;;5049626;28;20053;-54
2021/05/31 09:54:49;;;;;;;3.15;2.50;;;359.30;2252.80;;;;;;5048343;28;20393;-54
2021/05/31 09:57:28;;;;;;;7.35;5.22;;;359.20;2278.40;;;;;;5049138;28;20060;-54
2021/05/31 10:00:10;;;;;;;4.32;3.05;;;359.30;2304.00;;;;;;5049009;28;20025;-54
2021/05/31 10:08:15;;;;;;;4.40;3.00;;;384.20;2227.20;;;;;;5048900;28;20059;-57
2021/05/31 10:10:38;;;;;;;7.47;2.67;;;384.40;2252.80;;;;;;5053265;28;20469;-59
2021/05/31 10:13:05;;;;;;;4.53;3.00;;;384.50;2278.40;;;;;;5070977;28;20024;-61
2021/05/31 10:15:40;;;;;;;4.55;3.28;;;384.60;2227.20;;;;;;5071838;28;20179;-59
2021/05/31 10:18:07;;;;;;;2.78;2.40;;;384.70;2227.20;;;;;;5071477;28;20035;-59
2021/05/31 10:20:36;;;;;;;4.30;3.00;;;384.70;2201.60;;;;;;5070572;28;20111;-54
2021/05/31 10:23:03;;;;;;;3.28;2.40;;;384.70;2227.20;;;;;;5071760;28;20033;-60
2021/05/31 10:25:31;;;;;;;4.00;2.60;;;384.80;2176.00;;;;;;5071861;28;20613;-55
2021/05/31 10:28:05;;;;;;;4.75;2.50;;;384.80;2150.40;;;;;;5070869;28;20017;-58
2021/05/31 10:30:43;;;;;;;4.80;4.38;;;384.70;2201.60;;;;;;5071440;28;20024;-58
2021/05/31 10:33:17;;;;;;;7.32;5.43;;;384.70;2227.20;;;;;;5070244;28;20016;-58
2021/05/31 10:35:43;;;;;;;56.05;45.67;;;384.70;2176.00;;;;;;5069543;28;20017;-56
2021/05/31 10:38:12;;;;;;;8.32;6.35;;;384.70;2201.60;;;;;;5070070;28;20029;-54
2021/05/31 10:40:43;;;;;;;4.65;3.00;;;384.50;2201.60;;;;;;5069689;28;20362;-54
2021/05/31 10:43:11;;;;;;;4.72;2.72;;;384.40;2201.60;;;;;;5069651;28;20032;-58
2021/05/31 10:45:38;;;;;;;3.72;2.38;;;384.40;2227.20;;;;;;5069837;28;20024;-58
2021/05/31 10:48:40;;;;;;;2.50;2.30;;;384.40;2227.20;;;;;;5071190;28;20033;-54
2021/05/31 10:51:20;;;;;;;3.35;2.40;;;384.40;2227.20;;;;;;5071098;28;20372;-59
2021/05/31 10:53:46;;;;;;;3.25;2.50;;;384.40;2227.20;;;;;;5071409;28;20032;-57
2021/05/31 10:56:25;;;;;;;4.38;2.47;;;384.50;2227.20;;;;;;5070823;28;20056;-55
2021/05/31 10:58:56;;;;;;;6.70;3.05;;;384.50;2201.60;;;;;;5071881;28;20059;-54
2021/05/31 11:01:28;;;;;;;4.30;2.53;;;384.60;2252.80;;;;;;5071460;28;20028;-58
2021/05/31 11:03:59;;;;;;;4.13;2.42;;;384.80;2201.60;;;;;;5071312;28;20078;-60
2021/05/31 11:06:28;;;;;;;2.83;2.38;;;384.70;2227.20;;;;;;5070876;28;20048;-60
2021/05/31 11:08:57;;;;;;;5.00;4.43;;;384.80;2252.80;;;;;;5071350;28;20071;-55
2021/05/31 11:11:37;;;;;;;18.65;17.13;;;409.70;2252.80;;;;;;5071115;28;20635;-56
2021/05/31 11:14:05;;;;;;;61.22;54.20;;;409.70;2227.20;;;;;;5070693;28;20389;-55
2021/05/31 11:16:34;;;;;;;4.88;3.92;;;409.70;2252.80;;;;;;5071019;28;20112;-60
2021/05/31 11:19:06;;;;;;;4.68;3.20;;;409.80;2201.60;;;;;;5070926;28;20025;-61
2021/05/31 11:21:39;;;;;;;3.22;2.60;;;409.80;2201.60;;;;;;5071593;28;20028;-60
2021/05/31 11:24:13;;;;;;;3.72;3.03;;;409.80;2201.60;;;;;;5074935;28;20434;-60
2021/05/31 11:26:41;;;;;;;4.07;2.60;;;409.80;2227.20;;;;;;5074968;28;20036;-60
2021/05/31 11:29:09;;;;;;;5.13;2.95;;;409.70;2227.20;;;;;;5074848;28;20025;-60
2021/05/31 11:31:37;;;;;;;4.35;2.88;;;409.80;2227.20;;;;;;5075042;28;20036;-61
2021/05/31 11:34:04;;;;;;;3.45;2.88;;;409.70;2201.60;;;;;;5074870;28;20112;-61
2021/05/31 11:36:45;;;;;;;3.22;2.72;;;409.70;2201.60;;;;;;5074473;28;20043;-55
2021/05/31 11:39:15;;;;;;;5.15;3.60;;;409.70;2201.60;;;;;;5074576;28;20090;-60
2021/05/31 11:41:53;;;;;;;11.15;10.00;;;409.70;2227.20;;;;;;5074566;28;20096;-61
2021/05/31 11:44:33;;;;;;;7.75;4.60;;;409.60;2227.20;;;;;;5074701;28;20562;-58
2021/05/31 11:47:03;;;;;;;14.43;11.40;;;409.60;2252.80;;;;;;5073699;28;20029;-59
2021/05/31 11:49:36;;;;;;;6.60;4.75;;;409.60;2278.40;;;;;;5073683;28;20029;-55
2021/05/31 11:52:07;;;;;;;13.63;10.65;;;384.90;2252.80;;;;;;5073370;28;20111;-54
2021/05/31 11:54:36;;;;;;;8.02;6.22;;;384.80;2252.80;;;;;;5070632;28;20485;-60
2021/05/31 11:57:05;;;;;;;12.43;10.70;;;384.80;2252.80;;;;;;5072612;28;20041;-55
2021/05/31 11:59:42;;;;;;;14.13;12.77;;;384.80;2278.40;;;;;;5073404;28;20025;-58
2021/05/31 12:02:16;;;;;;;10.32;6.88;;;384.80;2278.40;;;;;;5072790;28;20088;-59
2021/05/31 12:04:44;;;;;;;8.45;5.72;;;384.90;2278.40;;;;;;5073349;28;20077;-58
2021/05/31 12:07:12;;;;;;;7.25;5.15;;;384.80;2278.40;;;;;;5072591;28;20047;-60
2021/05/31 12:09:42;;;;;;;6.50;5.20;;;384.80;2304.00;;;;;;5073411;28;20020;-58
2021/05/31 12:12:15;;;;;;;6.57;5.07;;;384.80;2304.00;;;;;;5072765;28;20060;-59
2021/05/31 12:14:46;;;;;;;5.97;5.32;;;384.80;2304.00;;;;;;5073183;28;20013;-60
2021/05/31 12:17:13;;;;;;;7.57;6.00;;;384.80;2278.40;;;;;;5073039;28;20035;-59
2021/05/31 12:19:40;;;;;;;7.53;5.78;;;409.60;2278.40;;;;;;5073726;28;20078;-60
2021/05/31 12:22:07;;;;;;;9.10;6.38;;;384.90;2278.40;;;;;;5074063;28;20055;-58
2021/05/31 12:24:47;;;;;;;9.43;6.90;;;384.90;2278.40;;;;;;5073622;28;20508;-59
2021/05/31 12:27:14;;;;;;;7.50;6.20;;;409.60;2278.40;;;;;;5073339;28;20036;-58
2021/05/31 12:29:47;;;;;;;8.25;6.85;;;409.60;2278.40;;;;;;5072836;28;20027;-58
2021/05/31 12:32:22;;;;;;;7.32;6.22;;;409.60;2278.40;;;;;;5071297;28;20029;-59
2021/05/31 12:34:49;;;;;;;7.07;6.18;;;409.70;2278.40;;;;;;5072810;28;20103;-59
2021/05/31 12:37:18;;;;;;;7.75;6.90;;;384.90;2278.40;;;;;;5073584;28;20024;-57
2021/05/31 12:39:49;;;;;;;7.28;6.57;;;409.60;2278.40;;;;;;5073103;28;20622;-58
2021/05/31 12:42:24;;;;;;;8.07;6.70;;;409.60;2304.00;;;;;;5069275;28;20024;-58
2021/05/31 12:44:51;;;;;;;15.93;12.75;;;384.80;2227.20;;;;;;5073476;28;20036;-58
2021/05/31 12:47:20;;;;;;;11.82;9.88;;;409.60;2252.80;;;;;;5073505;28;20125;-59